Time;durP1;ratioP1;P1;durP2;ratioP2;P2;SDS_P1;SDS_P2;PMS_P1;PMS_P2;Temp;Humidity;BMP_temperature;BMP_pressure;BME280_temperature;BME280_humidity;BME280_pressure;Samples;Min_cycle;Max_cycle;Signal;HPM_P1;HPM_P2
2021/01/23 00:00:34;;;;;;;63.30;11.32;;;5.20;81.30;;;4.32;65.26;92587.59;5054548;28;20232;-85
2021/01/23 00:03:00;;;;;;;98.65;12.75;;;5.10;81.30;;;4.31;65.06;92578.22;5070839;28;20196;-85
2021/01/23 00:05:28;;;;;;;61.85;11.40;;;5.10;81.20;;;4.31;65.23;92578.22;5055607;28;20215;-85
2021/01/23 00:08:01;;;;;;;110.95;12.38;;;5.10;81.20;;;4.31;64.97;92565.25;5039742;28;20211;-84
2021/01/23 00:10:30;;;;;;;90.25;12.40;;;5.20;81.30;;;4.31;65.29;92565.25;5039633;28;20222;-85
2021/01/23 00:12:57;;;;;;;96.45;12.57;;;5.10;81.20;;;4.30;65.05;92553.25;5039190;28;20212;-85
2021/01/23 00:15:24;;;;;;;69.82;11.98;;;5.20;81.30;;;4.26;65.17;92549.53;5054777;28;20216;-84
2021/01/23 00:17:52;;;;;;;58.33;10.93;;;5.20;81.30;;;4.30;65.30;92553.25;5034907;28;20295;-84
2021/01/23 00:20:19;;;;;;;44.30;10.15;;;5.10;81.30;;;4.31;65.33;92556.69;5035302;28;20266;-85
2021/01/23 00:22:46;;;;;;;49.38;10.65;;;5.10;81.40;;;4.24;65.31;92530.75;5045136;28;20648;-85
2021/01/23 00:25:13;;;;;;;75.95;11.55;;;5.10;81.40;;;4.32;65.12;92540.88;5055697;28;20271;-85
2021/01/23 00:27:40;;;;;;;64.65;11.77;;;5.20;81.50;;;4.32;64.69;92540.06;5055642;28;20204;-85
2021/01/23 00:30:09;;;;;;;58.95;11.82;;;5.10;81.40;;;4.25;65.31;92528.97;5038627;28;20212;-84
2021/01/23 00:32:41;;;;;;;38.88;10.35;;;5.20;81.40;;;4.29;65.11;92527.53;5038523;28;20295;-85
2021/01/23 00:35:08;;;;;;;36.00;11.50;;;5.10;81.30;;;4.25;65.27;92524.56;5058569;28;20584;-84
2021/01/23 00:37:35;;;;;;;31.40;10.68;;;5.10;81.40;;;4.29;65.16;92530.91;5072196;28;20204;-85
2021/01/23 00:40:03;;;;;;;32.67;10.85;;;5.10;81.40;;;4.30;65.12;92516.94;5038048;28;20223;-85
2021/01/23 00:42:31;;;;;;;40.30;10.68;;;5.10;81.50;;;4.31;65.33;92507.38;5039054;28;20192;-85
2021/01/23 00:44:57;;;;;;;29.48;10.93;;;5.10;81.40;;;4.31;65.38;92512.56;5038290;28;20289;-85
2021/01/23 00:47:24;;;;;;;17.38;10.52;;;5.10;81.40;;;4.30;65.27;92492.81;5054932;28;20219;-86
2021/01/23 00:49:51;;;;;;;16.30;11.40;;;5.20;81.50;;;4.33;65.41;92487.16;5038364;28;20307;-85
2021/01/23 00:52:18;;;;;;;15.82;10.68;;;5.20;81.60;;;4.33;65.52;92477.59;5038125;28;20235;-83
2021/01/23 00:54:45;;;;;;;14.40;10.45;;;5.10;81.60;;;4.37;65.71;92475.38;5055040;28;20220;-85
2021/01/23 00:57:13;;;;;;;15.25;10.65;;;5.20;81.80;;;4.47;65.60;92473.06;5054043;28;20246;-84
2021/01/23 00:59:42;;;;;;;15.73;10.40;;;5.20;81.90;;;4.53;65.48;92458.44;5055250;28;20236;-85
2021/01/23 01:02:08;;;;;;;14.98;10.52;;;5.20;82.00;;;4.59;65.89;92472.34;5037730;28;20231;-85
2021/01/23 01:04:40;;;;;;;15.93;10.85;;;5.30;82.10;;;4.63;65.40;92466.53;5038582;28;20266;-85
2021/01/23 01:07:07;;;;;;;13.02;9.95;;;5.30;82.00;;;4.67;65.48;92461.69;5054510;28;20192;-84
2021/01/23 01:09:34;;;;;;;12.38;8.82;;;5.40;82.00;;;4.69;65.72;92462.28;5053855;28;20784;-84
2021/01/23 01:12:00;;;;;;;12.35;7.53;;;5.40;82.10;;;4.78;66.28;92455.75;5038102;28;20219;-85
2021/01/23 01:14:27;;;;;;;10.30;7.03;;;5.40;82.30;;;4.93;67.14;92459.81;5037921;28;20234;-85
2021/01/23 01:16:54;;;;;;;8.75;6.38;;;5.50;82.70;;;5.05;67.16;92454.69;5053985;28;20658;-85
2021/01/23 01:19:20;;;;;;;9.88;7.38;;;5.60;82.90;;;5.23;67.02;92461.66;5037912;28;20219;-84
2021/01/23 01:21:48;;;;;;;8.90;6.07;;;5.70;83.20;;;5.33;66.41;92454.13;5037906;28;20196;-84
2021/01/23 01:24:15;;;;;;;9.98;6.90;;;5.80;83.20;;;5.43;66.54;92449.19;5054704;28;20361;-84
2021/01/23 01:26:43;;;;;;;10.52;6.72;;;5.90;83.20;;;5.55;66.70;92432.81;5053566;28;20200;-85
2021/01/23 01:29:10;;;;;;;10.07;6.82;;;6.10;83.20;;;5.62;66.45;92430.94;5036989;28;20189;-84
2021/01/23 01:31:36;;;;;;;8.13;5.88;;;6.20;83.20;;;5.62;66.51;92428.31;5038191;28;20224;-85
2021/01/23 01:34:03;;;;;;;9.40;6.45;;;6.20;83.10;;;5.76;66.20;92432.31;5037401;28;20706;-85
2021/01/23 01:36:31;;;;;;;8.60;6.07;;;6.30;83.10;;;5.84;66.34;92420.78;5053929;28;20234;-85
2021/01/23 01:38:58;;;;;;;7.70;5.65;;;6.30;83.00;;;5.83;66.18;92424.41;5041606;28;20549;-85
2021/01/23 01:41:24;;;;;;;7.15;5.50;;;6.50;83.00;;;5.96;66.61;92435.63;5036592;28;20224;-85
2021/01/23 01:43:51;;;;;;;10.13;6.20;;;6.50;83.10;;;6.02;66.55;92427.75;5054208;28;20214;-86
2021/01/23 01:46:19;;;;;;;7.88;5.47;;;6.60;83.20;;;6.08;66.25;92413.06;5052868;28;20574;-85
2021/01/23 01:48:50;;;;;;;5.90;4.50;;;6.60;83.10;;;6.13;66.06;92412.34;5053275;28;20250;-85
2021/01/23 01:51:17;;;;;;;6.78;5.10;;;6.70;83.10;;;6.17;66.13;92406.47;5053517;28;20273;-85
2021/01/23 01:53:45;;;;;;;6.97;5.00;;;6.70;82.90;;;6.18;66.19;92399.47;5020397;28;20204;-85
2021/01/23 01:56:11;;;;;;;6.28;4.45;;;6.80;82.90;;;6.25;66.20;92406.13;5033444;28;20225;-86
2021/01/23 01:58:38;;;;;;;8.00;5.28;;;6.80;82.90;;;6.28;65.97;92415.31;5059779;28;20192;-86
2021/01/23 02:01:05;;;;;;;6.47;4.70;;;6.90;82.90;;;6.24;65.81;92396.75;5052966;28;20227;-87
2021/01/23 02:04:02;;;;;;;5.95;4.88;;;6.90;82.90;;;6.33;66.35;92396.41;5053265;28;20254;-86
2021/01/23 02:06:45;;;;;;;6.53;4.93;;;6.90;83.00;;;6.37;66.41;92406.13;5053783;28;20224;-87
2021/01/23 02:09:24;;;;;;;7.15;5.30;;;7.00;82.90;;;6.41;66.20;92393.47;5070172;28;20257;-86
2021/01/23 02:12:16;;;;;;;7.78;4.85;;;7.00;82.80;;;6.43;66.00;92390.63;5037115;28;20606;-87
2021/01/23 02:15:00;;;;;;;8.38;5.68;;;7.10;82.90;;;6.44;66.23;92387.78;5036363;28;20617;-86
2021/01/23 02:17:33;;;;;;;7.70;5.03;;;7.10;82.90;;;6.44;66.04;92397.41;5050466;28;20208;-87
2021/01/23 02:20:24;;;;;;;8.05;4.75;;;7.10;82.80;;;6.49;66.27;92394.91;5044800;28;20382;-86
2021/01/23 02:23:11;;;;;;;6.85;4.63;;;7.10;82.80;;;6.50;66.22;92383.47;5017832;28;20454;-87
2021/01/23 02:25:57;;;;;;;6.95;4.57;;;7.20;82.80;;;6.53;66.19;92386.41;5020852;28;20303;-87
2021/01/23 02:29:03;;;;;;;8.02;4.78;;;7.20;82.80;;;6.54;65.95;92390.59;5052903;28;20279;-88
2021/01/23 02:31:41;;;;;;;6.05;4.80;;;7.20;82.70;;;6.52;66.33;92381.44;5069388;28;20234;-88
2021/01/23 02:34:11;;;;;;;8.60;4.75;;;7.20;82.70;;;6.60;66.24;92388.88;5036310;28;20204;-88
2021/01/23 02:36:41;;;;;;;6.63;4.70;;;7.20;82.70;;;6.63;66.34;92380.63;5037071;28;20214;-88
2021/01/23 02:39:09;;;;;;;7.28;4.85;;;7.30;82.90;;;6.64;66.06;92369.19;5019761;28;20196;-88
2021/01/23 02:41:37;;;;;;;8.57;4.68;;;7.30;82.80;;;6.66;66.19;92364.53;5019971;28;20218;-88
2021/01/23 02:44:03;;;;;;;7.68;4.82;;;7.30;82.80;;;6.72;66.38;92370.63;5053061;28;20192;-87
2021/01/23 02:46:30;;;;;;;7.70;4.90;;;7.30;82.80;;;6.77;66.08;92364.72;5036355;28;20224;-88
2021/01/23 02:48:58;;;;;;;9.98;5.10;;;7.40;82.90;;;6.80;66.19;92365.06;5052527;28;20200;-88
2021/01/23 02:51:59;;;;;;;7.93;4.97;;;7.50;83.00;;;6.82;66.12;92352.59;5052496;28;20219;-88
2021/01/23 02:54:50;;;;;;;8.05;5.30;;;7.40;83.00;;;6.83;66.06;92346.34;5069218;28;20208;-88
2021/01/23 02:57:20;;;;;;;7.90;5.45;;;7.50;83.00;;;6.82;66.49;92351.78;5052983;28;20204;-89
2021/01/23 02:59:52;;;;;;;9.25;5.05;;;7.50;83.00;;;6.92;66.55;92354.59;5052439;28;20293;-88
2021/01/23 03:02:22;;;;;;;7.55;4.50;;;7.50;83.10;;;6.95;66.40;92354.13;5036688;28;20199;-88
2021/01/23 03:04:51;;;;;;;8.95;4.43;;;7.60;83.10;;;6.97;66.59;92351.28;5051267;28;20274;-89
2021/01/23 03:07:18;;;;;;;7.25;4.43;;;7.70;83.00;;;6.97;66.27;92346.06;5053127;28;20204;-88
2021/01/23 03:09:45;;;;;;;9.02;4.40;;;7.60;82.90;;;6.97;66.11;92352.09;5052547;28;20689;-89
2021/01/23 03:12:12;;;;;;;9.20;4.57;;;7.60;82.90;;;7.00;66.18;92359.44;5052763;28;20195;-88
2021/01/23 03:14:39;;;;;;;7.25;4.45;;;7.70;82.90;;;7.01;66.62;92345.38;5036751;28;20269;-89
2021/01/23 03:17:07;;;;;;;6.90;4.47;;;7.70;82.90;;;7.03;65.99;92358.16;5035941;28;20658;-89
2021/01/23 03:19:33;;;;;;;7.47;4.38;;;7.70;82.80;;;7.03;66.89;92348.56;5051772;28;20228;-89
2021/01/23 03:22:00;;;;;;;5.88;4.50;;;7.80;82.90;;;7.04;66.12;92359.75;5051542;28;20192;-89
2021/01/23 03:24:29;;;;;;;5.43;3.97;;;7.70;82.80;;;7.04;66.32;92355.34;5052704;28;20203;-89
2021/01/23 03:26:56;;;;;;;6.78;4.50;;;7.80;82.90;;;7.06;66.22;92347.28;5052127;28;20192;-88
2021/01/23 03:29:24;;;;;;;6.97;4.30;;;7.70;82.80;;;7.09;66.29;92348.63;5020156;28;20283;-89
2021/01/23 03:31:50;;;;;;;7.90;4.55;;;7.70;82.70;;;7.06;66.05;92344.69;5036086;28;20198;-88
2021/01/23 03:34:18;;;;;;;6.22;4.20;;;7.80;82.70;;;7.00;66.22;92341.19;5017164;28;20195;-89
2021/01/23 03:36:45;;;;;;;9.43;5.07;;;7.80;82.60;;;7.01;66.15;92337.56;5049547;28;20208;-89
2021/01/23 03:39:12;;;;;;;9.77;4.05;;;7.70;82.60;;;7.04;66.21;92337.09;5047917;28;20639;-88
2021/01/23 03:41:39;;;;;;;8.57;4.40;;;7.70;82.50;;;7.03;65.93;92338.13;5049631;28;20295;-89
2021/01/23 03:44:06;;;;;;;8.43;4.05;;;7.70;82.60;;;6.95;66.24;92328.06;5034769;28;20257;-88
2021/01/23 03:46:34;;;;;;;7.72;4.28;;;7.70;82.50;;;6.98;66.14;92338.03;5033810;28;20243;-86
2021/01/23 03:49:02;;;;;;;5.93;4.03;;;7.70;82.50;;;6.94;66.30;92336.13;5050836;28;20222;-89
2021/01/23 03:51:29;;;;;;;6.55;4.47;;;7.70;82.50;;;6.93;66.28;92337.94;5033424;28;20749;-89
2021/01/23 03:53:56;;;;;;;8.18;3.92;;;7.70;82.50;;;6.93;66.49;92343.13;5049395;28;20227;-88
2021/01/23 03:56:23;;;;;;;5.82;3.90;;;7.70;82.50;;;6.93;66.19;92337.94;5050459;28;20216;-87
2021/01/23 03:58:50;;;;;;;5.95;4.10;;;7.70;82.50;;;6.91;66.23;92332.19;5037513;28;20208;-88
2021/01/23 04:01:17;;;;;;;7.78;3.95;;;7.70;82.50;;;6.92;66.20;92328.56;5034728;28;20226;-88
2021/01/23 04:03:45;;;;;;;5.50;3.83;;;7.70;83.40;;;6.91;66.20;92329.56;5023355;28;20245;-88
2021/01/23 04:06:12;;;;;;;6.68;4.00;;;7.60;82.50;;;6.92;66.40;92327.75;5033147;28;20253;-88
2021/01/23 04:08:39;;;;;;;5.35;3.55;;;7.70;82.60;;;6.88;66.02;92327.41;5049732;28;20242;-88
2021/01/23 04:11:06;;;;;;;5.97;3.40;;;7.60;82.50;;;6.85;65.92;92331.28;5048860;28;20732;-89
2021/01/23 04:13:33;;;;;;;8.93;4.18;;;7.70;82.50;;;6.79;66.15;92334.81;5049914;28;20287;-88
2021/01/23 04:16:00;;;;;;;7.97;3.63;;;7.60;82.50;;;6.85;66.35;92348.75;5029813;28;20215;-89
2021/01/23 04:18:29;;;;;;;5.93;3.67;;;7.60;82.50;;;6.83;66.13;92332.53;5031768;28;20204;-89
2021/01/23 04:20:55;;;;;;;6.93;3.55;;;7.60;82.50;;;6.78;66.32;92322.81;5033081;28;20766;-89
2021/01/23 04:23:23;;;;;;;5.72;3.65;;;7.60;82.50;;;6.79;66.03;92329.59;5048716;28;20318;-89
2021/01/23 04:25:50;;;;;;;4.20;3.10;;;7.60;82.50;;;6.72;66.06;92329.72;5031777;28;20227;-89
2021/01/23 04:28:17;;;;;;;5.88;3.30;;;7.50;82.40;;;6.73;65.96;92333.16;5030508;28;20227;-89
2021/01/23 04:30:44;;;;;;;7.30;3.70;;;7.50;82.40;;;6.65;66.03;92328.28;5045622;28;20223;-89
2021/01/23 04:33:11;;;;;;;6.88;3.50;;;7.50;82.30;;;6.63;65.91;92338.13;5031846;28;20283;-90
2021/01/23 04:35:40;;;;;;;5.57;3.03;;;7.50;82.30;;;6.61;65.99;92340.97;5048395;28;20302;-89
2021/01/23 04:38:06;;;;;;;11.23;5.88;;;7.40;82.20;;;6.49;65.97;92343.59;5052335;28;20290;-88
2021/01/23 04:40:35;;;;;;;10.20;5.82;;;7.40;82.20;;;6.54;65.85;92351.53;5052854;28;20254;-88
2021/01/23 04:43:03;;;;;;;7.82;4.47;;;7.30;82.30;;;6.52;65.83;92360.63;5020393;28;20203;-89
2021/01/23 04:45:30;;;;;;;6.68;3.92;;;7.40;82.40;;;6.50;66.45;92352.22;5035749;28;20307;-88
2021/01/23 04:47:57;;;;;;;4.85;3.25;;;7.30;82.30;;;6.56;66.42;92348.69;5020111;28;20234;-89
2021/01/23 04:50:24;;;;;;;6.70;3.60;;;7.30;82.50;;;6.53;66.61;92339.53;5060487;28;20254;-88
2021/01/23 04:52:51;;;;;;;6.00;3.30;;;7.30;82.70;;;6.62;67.05;92339.97;5032136;28;20204;-88
2021/01/23 04:55:17;;;;;;;4.90;3.10;;;7.30;82.80;;;6.62;66.71;92333.97;5016892;28;20685;-87
2021/01/23 04:57:44;;;;;;;5.47;3.00;;;7.40;83.00;;;6.73;66.33;92348.78;5052289;28;20231;-88
2021/01/23 05:00:13;;;;;;;4.68;3.08;;;7.40;83.00;;;6.76;66.34;92344.91;5036105;28;20226;-88
2021/01/23 05:02:40;;;;;;;4.07;2.90;;;7.40;83.00;;;6.73;66.53;92346.94;5034133;28;20287;-89
2021/01/23 05:05:09;;;;;;;5.20;3.70;;;7.40;82.90;;;6.75;66.67;92344.13;5034223;28;20314;-89
2021/01/23 05:07:39;;;;;;;4.95;2.83;;;7.50;83.00;;;6.86;66.52;92355.50;5034648;28;20194;-89
2021/01/23 05:10:16;;;;;;;5.15;3.00;;;7.50;83.00;;;6.88;66.47;92356.88;5037414;28;20224;-89
2021/01/23 05:12:53;;;;;;;3.53;2.97;;;7.50;82.90;;;6.86;66.72;92343.28;5050992;28;20250;-88
2021/01/23 05:15:33;;;;;;;6.60;3.03;;;7.50;83.00;;;6.94;66.44;92359.56;5069255;28;20289;-89
2021/01/23 05:18:09;;;;;;;4.43;3.08;;;7.60;82.90;;;6.96;66.44;92370.56;5046962;28;20258;-90
2021/01/23 05:20:41;;;;;;;3.75;2.63;;;7.60;82.90;;;6.97;66.43;92375.53;5058499;28;20691;-89
2021/01/23 05:23:27;;;;;;;4.07;2.88;;;7.70;82.90;;;6.96;66.22;92384.38;5048492;28;20208;-90
2021/01/23 05:26:00;;;;;;;5.18;2.80;;;7.60;82.90;;;6.93;66.40;92400.47;5046394;28;20318;-89
2021/01/23 05:28:31;;;;;;;4.38;2.50;;;7.70;82.70;;;6.89;66.15;92410.56;5052388;28;20214;-89
2021/01/23 05:31:01;;;;;;;3.58;2.60;;;7.70;82.70;;;6.87;66.31;92419.63;5058102;28;20220;-89
2021/01/23 05:33:33;;;;;;;4.88;2.70;;;7.60;82.50;;;6.89;66.49;92422.81;5032731;28;20207;-89
2021/01/23 05:36:07;;;;;;;3.40;2.58;;;7.60;82.60;;;6.93;66.89;92425.75;5031998;28;21105;-89
2021/01/23 05:38:40;;;;;;;4.55;3.00;;;7.60;82.70;;;6.93;66.91;92428.34;5032350;28;20242;-89
2021/01/23 05:41:08;;;;;;;5.15;2.83;;;7.70;82.90;;;6.92;67.12;92438.00;5064501;28;20224;-89
2021/01/23 05:43:50;;;;;;;5.90;3.83;;;7.70;82.90;;;6.91;67.02;92446.03;5064959;28;20643;-90
2021/01/23 05:46:18;;;;;;;6.47;3.60;;;7.70;82.90;;;6.91;67.13;92446.81;5049065;28;20232;-89
2021/01/23 05:48:48;;;;;;;5.07;4.00;;;7.70;83.00;;;6.87;66.93;92454.31;5048755;28;20706;-90
2021/01/23 05:51:17;;;;;;;8.57;5.35;;;7.70;82.90;;;6.82;67.13;92456.81;5040189;28;20630;-89
2021/01/23 05:53:45;;;;;;;13.68;6.90;;;7.70;82.90;;;6.77;66.86;92461.91;5030185;28;20607;-89
2021/01/23 05:56:14;;;;;;;9.70;6.85;;;7.70;82.70;;;6.67;66.77;92465.09;5049680;28;20227;-89
2021/01/23 05:58:43;;;;;;;10.05;7.28;;;7.60;82.50;;;6.60;66.68;92472.22;5031738;28;20353;-89
2021/01/23 06:01:16;;;;;;;10.38;7.10;;;7.60;82.50;;;6.60;66.78;92480.03;5049565;28;20212;-90
2021/01/23 06:03:54;;;;;;;14.40;7.85;;;7.60;82.50;;;6.55;66.51;92478.13;5053335;28;20631;-89
2021/01/23 06:06:20;;;;;;;10.52;7.38;;;7.50;82.30;;;6.52;66.56;92501.22;5050012;28;20298;-89
2021/01/23 06:08:53;;;;;;;12.27;8.15;;;7.50;82.40;;;6.47;66.64;92520.13;5050335;28;20196;-89
2021/01/23 06:11:19;;;;;;;13.65;9.02;;;7.40;82.20;;;6.40;66.23;92525.44;5048934;28;20235;-89
2021/01/23 06:13:51;;;;;;;12.80;9.00;;;7.40;82.10;;;6.35;66.19;92527.94;5065292;28;20200;-88
2021/01/23 06:16:33;;;;;;;13.90;10.25;;;7.30;82.00;;;6.28;66.02;92529.84;5032866;28;20311;-88
2021/01/23 06:19:07;;;;;;;13.80;10.18;;;7.30;81.90;;;6.23;65.92;92551.31;5047934;28;20195;-88
2021/01/23 06:21:43;;;;;;;14.10;9.68;;;7.20;81.80;;;6.18;66.14;92550.44;5066074;28;20285;-89
2021/01/23 06:24:12;;;;;;;16.63;10.32;;;7.10;81.70;;;6.12;65.86;92567.72;5052111;28;20646;-88
2021/01/23 06:26:55;;;;;;;16.05;10.23;;;7.10;81.70;;;6.04;65.84;92565.41;5052241;28;20228;-86
2021/01/23 06:29:36;;;;;;;14.07;9.25;;;7.00;81.50;;;5.99;65.83;92576.50;5068897;28;20210;-88
2021/01/23 06:32:14;;;;;;;14.90;10.48;;;7.00;81.60;;;5.97;65.77;92595.91;5068845;28;20199;-88
2021/01/23 06:34:50;;;;;;;16.73;11.38;;;6.90;81.50;;;5.91;65.73;92605.41;5067509;28;20227;-88
2021/01/23 06:37:34;;;;;;;15.18;10.52;;;6.90;81.60;;;5.86;65.69;92619.06;5051802;28;20192;-89
2021/01/23 06:40:11;;;;;;;16.42;11.55;;;6.80;81.50;;;5.83;65.96;92629.91;5045098;28;20220;-90
2021/01/23 06:42:49;;;;;;;18.05;12.10;;;6.80;81.50;;;5.82;65.73;92627.53;5046026;28;20188;-89
2021/01/23 06:45:27;;;;;;;19.88;13.70;;;6.70;81.40;;;5.76;65.73;92626.59;5068340;28;20325;-89
2021/01/23 06:47:58;;;;;;;20.38;15.07;;;6.70;81.40;;;5.75;65.77;92640.63;5051138;28;20196;-89
2021/01/23 06:50:41;;;;;;;20.92;15.10;;;6.70;81.40;;;5.75;65.26;92630.22;5035194;28;20220;-89
2021/01/23 06:53:22;;;;;;;21.67;14.75;;;6.60;81.30;;;5.72;65.40;92630.66;5051853;28;20188;-89
2021/01/23 06:55:54;;;;;;;20.92;15.00;;;6.70;81.40;;;5.70;65.21;92640.47;5049166;28;20697;-88
2021/01/23 06:58:35;;;;;;;22.05;15.90;;;6.60;81.30;;;5.69;64.99;92646.66;5035517;28;20188;-89
2021/01/23 07:01:02;;;;;;;22.17;15.48;;;6.60;81.20;;;5.69;64.78;92659.69;5051215;28;20219;-89
2021/01/23 07:03:31;;;;;;;19.20;13.88;;;6.60;81.30;;;5.66;65.26;92668.72;5051302;28;20223;-88
2021/01/23 07:06:03;;;;;;;18.63;13.77;;;6.60;81.40;;;5.74;65.01;92680.66;5068226;28;20318;-88
2021/01/23 07:08:37;;;;;;;15.48;12.70;;;6.60;81.40;;;5.77;65.14;92688.00;5035299;28;20258;-88
2021/01/23 07:11:14;;;;;;;16.25;12.88;;;6.60;81.40;;;5.81;65.11;92694.38;5042698;28;20215;-88
2021/01/23 07:14:04;;;;;;;14.63;11.35;;;6.60;81.50;;;5.83;64.67;92688.94;5048205;28;20646;-88
2021/01/23 07:16:34;;;;;;;12.48;9.75;;;6.70;81.20;;;5.87;63.21;92695.31;5035144;28;20220;-87
2021/01/23 07:19:07;;;;;;;10.85;7.97;;;6.70;80.90;;;5.89;64.32;92694.06;5034798;28;20188;-87
2021/01/23 07:21:39;;;;;;;9.07;7.15;;;6.70;80.90;;;5.89;63.70;92711.50;5034405;28;20220;-88
2021/01/23 07:24:09;;;;;;;8.32;6.40;;;6.70;80.70;;;5.96;63.68;92717.41;5051728;28;20547;-88
2021/01/23 07:26:37;;;;;;;6.40;5.40;;;6.70;80.60;;;6.00;63.79;92721.19;5033068;28;20292;-87
2021/01/23 07:29:04;;;;;;;5.47;4.90;;;6.80;80.60;;;6.04;63.37;92718.94;5034832;28;20222;-86
2021/01/23 07:31:33;;;;;;;5.85;5.10;;;6.70;80.60;;;6.08;63.25;92751.34;5050034;28;20232;-87
2021/01/23 07:34:10;;;;;;;4.82;4.32;;;6.80;80.50;;;6.11;63.41;92763.91;5047793;28;20230;-88
2021/01/23 07:36:44;;;;;;;5.30;4.30;;;6.80;80.40;;;6.11;63.55;92769.13;5036078;28;20203;-86
2021/01/23 07:39:19;;;;;;;5.70;4.40;;;6.80;80.40;;;6.14;63.22;92776.50;5050737;28;20200;-87
2021/01/23 07:41:55;;;;;;;4.38;3.92;;;6.90;80.20;;;6.19;63.25;92784.47;5051681;28;20207;-88
2021/01/23 07:44:26;;;;;;;4.30;3.83;;;6.90;80.10;;;6.20;63.22;92795.66;5044891;28;20207;-87
2021/01/23 07:46:53;;;;;;;3.75;3.35;;;6.90;80.00;;;6.26;63.46;92800.00;5045996;28;20279;-87
2021/01/23 07:49:27;;;;;;;3.95;3.50;;;7.00;80.20;;;6.28;63.11;92794.59;5049695;28;20211;-88
2021/01/23 07:52:10;;;;;;;4.20;3.03;;;7.10;80.00;;;6.27;62.68;92798.97;5044989;28;20204;-88
2021/01/23 07:54:52;;;;;;;2.50;2.30;;;7.00;79.70;;;6.29;62.73;92802.16;5045575;28;20228;-87
2021/01/23 07:57:20;;;;;;;2.55;2.08;;;7.00;79.50;;;6.29;62.56;92804.00;5047357;28;20205;-88
2021/01/23 07:59:47;;;;;;;1.90;1.70;;;7.00;79.70;;;6.29;61.87;92823.00;5032219;28;20294;-86
2021/01/23 08:02:16;;;;;;;2.78;1.70;;;7.10;79.40;;;6.29;62.23;92827.41;5072165;28;20204;-86
2021/01/23 08:04:52;;;;;;;1.92;1.73;;;7.10;79.40;;;6.30;62.12;92835.00;5047847;28;20261;-86
2021/01/23 08:07:24;;;;;;;1.50;1.40;;;7.10;79.10;;;6.25;60.07;92829.66;5053397;28;20279;-85
2021/01/23 08:10:17;;;;;;;1.40;1.30;;;7.00;78.60;;;6.19;59.50;92820.91;5054683;28;20219;-86
2021/01/23 08:13:06;;;;;;;1.33;1.23;;;7.10;77.90;;;6.12;59.85;92806.38;5031365;28;20203;-85
2021/01/23 08:15:40;;;;;;;1.10;1.10;;;7.00;77.70;;;6.09;59.50;92807.56;5054707;28;20702;-86
2021/01/23 08:18:19;;;;;;;0.80;0.80;;;6.90;77.50;;;6.06;59.43;92808.03;5059900;28;20219;-86
2021/01/23 08:20:47;;;;;;;0.70;0.70;;;6.90;77.40;;;6.04;58.95;92794.41;5031456;28;20312;-85
2021/01/23 08:23:16;;;;;;;0.85;0.80;;;6.90;77.20;;;5.98;58.23;92745.81;5057797;28;20257;-86
2021/01/23 08:25:52;;;;;;;0.90;0.90;;;6.90;76.60;;;5.83;56.21;92772.19;5055272;28;20228;-86
2021/01/23 08:28:42;;;;;;;0.93;0.93;;;6.80;75.90;;;5.81;57.43;92775.03;5076239;28;20202;-86
2021/01/23 08:31:18;;;;;;;0.80;0.80;;;6.80;76.00;;;5.73;57.56;92807.28;5055363;28;20238;-85
2021/01/23 08:33:52;;;;;;;0.80;0.80;;;6.70;76.50;;;5.70;57.48;92799.94;5055066;28;20295;-85
2021/01/23 08:36:19;;;;;;;0.80;0.80;;;6.70;76.20;;;5.72;58.38;92821.28;5038512;28;20248;-85
2021/01/23 08:38:53;;;;;;;0.90;0.90;;;6.70;76.50;;;5.73;58.26;92832.50;5042613;28;20257;-85
2021/01/23 08:41:22;;;;;;;0.80;0.80;;;6.60;76.50;;;5.71;57.23;92830.13;5038227;28;20607;-85
2021/01/23 08:43:50;;;;;;;1.08;1.00;;;6.70;76.40;;;5.75;57.68;92849.50;5055177;28;20662;-85
2021/01/23 08:46:16;;;;;;;1.27;1.13;;;6.60;76.30;;;5.79;57.39;92875.09;5065725;28;20231;-85
2021/01/23 08:48:44;;;;;;;0.90;0.90;;;6.60;76.20;;;5.82;58.17;92866.84;5042625;28;20208;-85
2021/01/23 08:51:11;;;;;;;0.90;0.90;;;6.60;76.60;;;5.96;58.80;92880.53;5033166;28;20223;-84
2021/01/23 08:53:38;;;;;;;1.30;1.20;;;6.70;77.00;;;6.01;56.46;92875.53;5051701;28;20204;-86
2021/01/23 08:56:05;;;;;;;0.90;0.90;;;6.70;76.30;;;6.11;57.39;92882.84;5062847;28;20218;-86
2021/01/23 08:58:32;;;;;;;2.08;1.70;;;6.70;76.50;;;6.28;58.47;92872.69;5020259;28;20211;-84
2021/01/23 09:00:58;;;;;;;1.05;1.05;;;6.80;77.10;;;6.39;56.99;92872.75;5054412;28;20285;-86
2021/01/23 09:03:25;;;;;;;3.90;1.70;;;6.90;76.70;;;6.56;57.97;92870.38;5029336;28;20247;-86
2021/01/23 09:05:52;;;;;;;3.83;2.67;;;6.90;76.90;;;6.64;56.56;92850.25;5051764;28;20690;-86
2021/01/23 09:08:18;;;;;;;3.60;2.47;;;7.10;76.60;;;6.75;57.36;92854.75;5053117;28;20650;-88
2021/01/23 09:10:46;;;;;;;4.10;2.53;;;7.10;76.50;;;6.82;56.64;92858.06;5052131;28;20231;-86
2021/01/23 09:13:13;;;;;;;3.35;2.40;;;7.20;76.30;;;6.82;56.84;92847.66;5069447;28;20278;-85
2021/01/23 09:15:40;;;;;;;2.25;1.60;;;7.30;76.20;;;6.89;55.47;92860.56;5021414;28;20228;-86
2021/01/23 09:18:07;;;;;;;1.55;1.30;;;7.40;75.60;;;6.95;54.46;92866.72;5052713;28;20283;-86
2021/01/23 09:20:35;;;;;;;1.30;1.15;;;7.50;75.30;;;6.98;55.87;92864.47;5052582;28;21145;-83
2021/01/23 09:23:02;;;;;;;1.27;1.10;;;7.50;75.50;;;7.03;53.42;92867.22;5035979;28;20192;-84
2021/01/23 09:25:29;;;;;;;1.20;1.10;;;7.50;74.70;;;7.13;55.05;92869.28;5020312;28;20569;-86
2021/01/23 09:27:57;;;;;;;0.98;0.98;;;7.60;75.30;;;7.23;55.80;92868.75;5037098;28;20196;-85
2021/01/23 09:30:24;;;;;;;1.30;1.20;;;7.70;75.60;;;7.31;55.16;92880.69;5036784;28;20306;-85
2021/01/23 09:32:50;;;;;;;1.00;0.90;;;7.70;75.20;;;7.34;52.54;92881.03;5018907;28;20231;-84
2021/01/23 09:35:17;;;;;;;1.88;1.42;;;7.80;74.30;;;7.39;54.33;92869.16;5050991;28;20228;-84
2021/01/23 09:37:45;;;;;;;9.95;5.22;;;7.80;74.60;;;7.39;53.19;92867.34;5036675;28;20200;-84
2021/01/23 09:40:12;;;;;;;4.10;2.20;;;7.90;74.40;;;7.40;54.00;92878.56;5054297;28;20584;-85
2021/01/23 09:42:40;;;;;;;1.10;1.10;;;7.90;74.40;;;7.40;54.10;92892.41;5050985;28;20729;-84
2021/01/23 09:45:07;;;;;;;2.13;1.70;;;7.90;74.40;;;7.44;54.47;92898.75;5020717;28;20270;-85
2021/01/23 09:47:34;;;;;;;1.60;1.50;;;7.90;74.40;;;7.45;54.26;92894.34;5046342;28;20224;-84
2021/01/23 09:50:02;;;;;;;2.47;1.48;;;8.00;74.50;;;7.46;54.83;92901.94;5063610;28;20307;-86
2021/01/23 09:52:30;;;;;;;2.35;1.77;;;8.00;74.50;;;7.49;55.57;92905.91;5038046;28;20628;-85
2021/01/23 09:54:58;;;;;;;2.35;1.50;;;8.00;74.50;;;7.46;54.54;92904.56;5067909;28;20273;-85
2021/01/23 09:57:25;;;;;;;2.40;1.90;;;8.10;74.60;;;7.52;55.24;92921.13;5032073;28;20283;-85
2021/01/23 09:59:52;;;;;;;8.65;4.93;;;8.10;74.60;;;7.51;54.65;92906.50;5016886;28;20587;-84
2021/01/23 10:02:18;;;;;;;6.97;4.15;;;8.20;74.60;;;7.53;55.00;92914.88;5017280;28;20220;-85
2021/01/23 10:04:45;;;;;;;3.17;1.85;;;8.20;74.60;;;7.52;54.78;92918.53;5030390;28;20250;-84
2021/01/23 10:07:12;;;;;;;2.42;1.60;;;8.20;74.60;;;7.50;54.52;92921.34;5053075;28;20200;-84
2021/01/23 10:09:40;;;;;;;2.92;2.10;;;8.20;74.60;;;7.46;54.37;92927.25;5054008;28;20220;-85
2021/01/23 10:12:07;;;;;;;0.80;0.80;;;8.20;74.00;;;7.37;53.25;92940.59;5035636;28;20258;-85
2021/01/23 10:14:34;;;;;;;1.50;1.33;;;8.10;73.40;;;7.34;54.92;92958.50;5046485;28;20262;-84
2021/01/23 10:17:00;;;;;;;1.23;1.13;;;8.10;74.00;;;7.30;53.79;92952.91;5033818;28;20200;-84
2021/01/23 10:19:27;;;;;;;1.38;1.27;;;8.00;73.90;;;7.33;55.14;92960.28;5050030;28;20291;-84
2021/01/23 10:21:55;;;;;;;1.00;1.00;;;8.00;74.40;;;7.35;55.31;92967.91;5051150;28;20247;-85
2021/01/23 10:24:21;;;;;;;1.40;1.27;;;8.00;74.50;;;7.35;55.13;92978.34;5035114;28;20662;-84
2021/01/23 10:26:49;;;;;;;1.77;1.58;;;8.00;75.30;;;7.42;55.31;92986.06;5035236;28;20570;-83
2021/01/23 10:29:15;;;;;;;2.10;1.88;;;8.00;74.60;;;7.41;55.40;92981.88;5050012;28;20199;-86
2021/01/23 10:31:42;;;;;;;1.27;1.17;;;8.00;74.50;;;7.43;53.01;92993.66;5035219;28;20200;-84
2021/01/23 10:34:10;;;;;;;1.80;1.70;;;8.10;73.90;;;7.49;54.48;93015.47;5034040;28;20673;-84
2021/01/23 10:36:37;;;;;;;2.22;1.85;;;8.10;74.40;;;7.55;55.13;93009.38;5051338;28;20716;-85
2021/01/23 10:39:05;;;;;;;2.65;1.88;;;8.20;74.60;;;7.63;55.39;93009.09;5050808;28;20677;-85
2021/01/23 10:41:33;;;;;;;1.52;1.30;;;8.20;74.60;;;7.68;54.82;93003.22;5035420;28;20211;-85
2021/01/23 10:44:00;;;;;;;1.55;1.33;;;8.20;74.60;;;7.72;53.46;93022.63;5057507;28;20208;-85